Time;durP1;ratioP1;P1;durP2;ratioP2;P2;SDS_P1;SDS_P2;PMS_P1;PMS_P2;Temp;Humidity;BMP_temperature;BMP_pressure;BME280_temperature;BME280_humidity;BME280_pressure;Samples;Min_cycle;Max_cycle;Signal;HPM_P1;HPM_P2
2022/04/08 00:01:57;;;;;;;2.30;1.53;;;;;;;8.03;80.60;96316.19;2241576;79;20939;-82
2022/04/08 00:04:58;;;;;;;2.23;1.30;;;;;;;8.02;80.59;96311.87;2241813;79;20951;-82
2022/04/08 00:07:59;;;;;;;3.63;1.63;;;;;;;8.00;80.61;96304.55;2241346;79;20931;-81
2022/04/08 00:10:59;;;;;;;2.00;1.20;;;;;;;7.99;80.64;96298.94;2241887;79;20940;-82
2022/04/08 00:14:00;;;;;;;2.10;1.20;;;;;;;7.94;81.34;96311.16;2241754;79;21254;-82
2022/04/08 00:17:02;;;;;;;1.80;1.30;;;;;;;7.87;80.64;96319.95;2241644;79;20932;-82
2022/04/08 00:20:03;;;;;;;2.07;1.30;;;;;;;7.84;80.98;96335.14;2241759;79;20896;-82
2022/04/08 00:23:03;;;;;;;1.67;1.13;;;;;;;7.81;81.21;96348.17;2241876;79;20904;-81
2022/04/08 00:26:04;;;;;;;2.83;0.87;;;;;;;7.82;81.12;96360.72;2252770;79;21341;-83
2022/04/08 00:29:04;;;;;;;2.80;1.53;;;;;;;7.83;80.87;96365.03;2255415;79;20888;-82
2022/04/08 00:32:05;;;;;;;3.70;1.17;;;;;;;7.86;80.81;96358.48;2254884;79;20914;-81
2022/04/08 00:35:05;;;;;;;6.57;2.80;;;;;;;7.83;81.37;96370.23;2255028;79;20936;-84
2022/04/08 00:38:06;;;;;;;2.63;1.20;;;;;;;7.81;80.56;96374.59;2255268;79;20876;-84
2022/04/08 00:41:07;;;;;;;3.07;1.30;;;;;;;7.79;80.75;96373.28;2255236;79;20939;-82
2022/04/08 00:44:07;;;;;;;2.40;1.33;;;;;;;7.80;81.07;96378.03;2255217;79;21126;-83
2022/04/08 00:47:08;;;;;;;4.00;1.60;;;;;;;7.82;80.90;96382.80;2255237;79;20895;-82
2022/04/08 00:50:08;;;;;;;1.90;1.70;;;;;;;7.82;80.58;96370.67;2255094;79;21278;-81
2022/04/08 00:53:09;;;;;;;2.73;2.10;;;;;;;7.78;81.18;96361.18;2255172;79;21293;-82
2022/04/08 00:56:09;;;;;;;3.67;1.87;;;;;;;7.73;80.55;96352.61;2255014;79;20907;-82
2022/04/08 00:59:10;;;;;;;3.03;2.43;;;;;;;7.68;80.54;96359.63;2255168;79;20923;-82
2022/04/08 01:02:10;;;;;;;3.13;1.77;;;;;;;7.62;81.15;96351.93;2255252;79;20926;-83
2022/04/08 01:05:11;;;;;;;4.47;3.07;;;;;;;7.56;81.23;96369.76;2255333;79;20879;-83
2022/04/08 01:08:12;;;;;;;5.93;2.67;;;;;;;7.53;80.66;96381.49;2255246;79;20987;-83
2022/04/08 01:11:12;;;;;;;4.83;1.63;;;;;;;7.53;81.13;96387.98;2255374;79;20876;-83
2022/04/08 01:14:13;;;;;;;2.50;1.40;;;;;;;7.53;81.57;96376.30;2255281;79;20936;-83
2022/04/08 01:17:13;;;;;;;5.63;2.63;;;;;;;7.51;81.34;96394.94;2255453;79;20903;-83
2022/04/08 01:20:14;;;;;;;3.03;2.70;;;;;;;7.51;81.43;96390.19;2255400;79;20895;-83
2022/04/08 01:23:14;;;;;;;3.10;2.80;;;;;;;7.50;81.84;96394.52;2255349;79;20899;-83
2022/04/08 01:26:14;;;;;;;4.87;2.50;;;;;;;7.49;81.85;96401.03;2254675;79;20971;-83
2022/04/08 01:29:15;;;;;;;3.93;3.40;;;;;;;7.46;81.85;96407.56;2254785;79;21084;-82
2022/04/08 01:32:15;;;;;;;5.83;2.90;;;;;;;7.41;82.05;96414.56;2255324;79;20974;-81
2022/04/08 01:35:16;;;;;;;2.53;2.00;;;;;;;7.35;81.68;96427.19;2256043;79;20895;-81
2022/04/08 01:38:16;;;;;;;2.87;2.07;;;;;;;7.31;82.01;96421.62;2255105;79;21315;-83
2022/04/08 01:41:18;;;;;;;3.23;2.03;;;;;;;7.32;81.49;96431.12;2256019;79;20915;-84
2022/04/08 01:44:18;;;;;;;3.17;1.40;;;;;;;7.36;80.90;96447.06;2256121;79;20891;-83
2022/04/08 01:47:19;;;;;;;2.53;1.70;;;;;;;7.41;80.58;96449.16;2256408;79;20888;-83
2022/04/08 01:50:21;;;;;;;3.80;1.80;;;;;;;7.47;80.37;96451.67;2255687;79;20942;-83
2022/04/08 01:53:22;;;;;;;4.93;1.90;;;;;;;7.51;79.85;96440.80;2255310;78;21014;-82
2022/04/08 01:56:22;;;;;;;3.23;2.00;;;;;;;7.52;79.38;96434.29;2255232;79;20950;-83
2022/04/08 01:59:22;;;;;;;5.87;2.40;;;;;;;7.50;79.05;96437.78;2255313;79;20911;-82
2022/04/08 02:02:23;;;;;;;5.07;2.53;;;;;;;7.49;79.00;96458.99;2254883;79;21253;-82
2022/04/08 02:05:23;;;;;;;5.40;2.70;;;;;;;7.50;79.17;96463.30;2254922;79;21311;-82
2022/04/08 02:08:24;;;;;;;6.87;3.20;;;;;;;7.53;79.18;96467.16;2255034;79;20959;-83
2022/04/08 02:11:24;;;;;;;3.03;1.60;;;;;;;7.56;79.27;96464.52;2254970;79;20963;-84
2022/04/08 02:14:25;;;;;;;4.40;1.80;;;;;;;7.55;79.38;96454.16;2254636;79;20959;-82
2022/04/08 02:17:25;;;;;;;2.97;1.67;;;;;;;7.50;79.74;96444.28;2254691;79;20896;-82
2022/04/08 02:20:26;;;;;;;1.67;1.57;;;;;;;7.40;79.60;96447.44;2254875;79;20931;-82
2022/04/08 02:23:27;;;;;;;3.87;1.60;;;;;;;7.31;79.65;96455.35;2254686;79;20906;-83
2022/04/08 02:26:28;;;;;;;2.43;1.60;;;;;;;7.25;79.67;96459.33;2254226;77;20974;-82
2022/04/08 02:29:28;;;;;;;5.07;1.87;;;;;;;7.21;79.88;96449.43;2254877;79;20963;-82
2022/04/08 02:32:29;;;;;;;3.93;1.60;;;;;;;7.19;79.86;96451.63;2255538;79;20915;-82
2022/04/08 02:35:29;;;;;;;1.50;1.40;;;;;;;7.19;79.89;96447.30;2255083;79;20899;-82
2022/04/08 02:38:30;;;;;;;4.30;1.63;;;;;;;7.25;79.90;96458.03;2255156;79;20899;-82
2022/04/08 02:41:30;;;;;;;6.30;3.43;;;;;;;7.29;79.88;96467.49;2255353;79;20887;-84
2022/04/08 02:44:30;;;;;;;2.13;1.27;;;;;;;7.31;81.70;96610.62;2255356;79;20924;-84
2022/04/08 02:47:31;;;;;;;4.83;2.33;;;;;;;6.49;80.62;96623.02;2255577;79;20944;-82
2022/04/08 02:50:32;;;;;;;2.50;1.43;;;;;;;5.57;83.09;96626.95;2255440;79;20884;-86
2022/04/08 02:53:32;;;;;;;4.73;1.57;;;;;;;5.15;84.80;96638.27;2255458;79;20915;-83
2022/04/08 02:56:33;;;;;;;5.40;2.70;;;;;;;4.88;95.56;96623.66;2254629;79;21331;-85
2022/04/08 02:59:33;;;;;;;3.93;2.63;;;;;;;4.77;86.59;96610.75;2254533;79;20876;-81
2022/04/08 03:02:34;;;;;;;21.40;14.77;;;;;;;4.73;86.28;96606.02;2255099;79;20919;-81
2022/04/08 03:05:34;;;;;;;7.80;2.40;;;;;;;4.71;86.09;96592.66;2255101;79;20944;-82
2022/04/08 03:08:35;;;;;;;5.33;2.20;;;;;;;4.70;85.92;96588.36;2255176;79;20915;-81
2022/04/08 03:11:35;;;;;;;6.80;2.70;;;;;;;4.70;85.70;96569.84;2255162;79;20919;-81
2022/04/08 03:14:36;;;;;;;2.50;1.40;;;;;;;4.70;86.19;96563.37;2255178;79;20883;-82
2022/04/08 03:17:37;;;;;;;10.53;6.33;;;;;;;4.72;85.75;96555.62;2254932;79;21015;-82
2022/04/08 03:20:37;;;;;;;6.87;1.90;;;;;;;4.75;85.69;96556.91;2254759;79;21298;-83
2022/04/08 03:23:39;;;;;;;3.97;1.60;;;;;;;4.78;85.34;96551.73;2254877;79;20923;-81
2022/04/08 03:26:40;;;;;;;3.67;1.80;;;;;;;4.78;84.99;96556.47;2254308;78;21473;-84
2022/04/08 03:29:40;;;;;;;4.17;2.03;;;;;;;4.78;84.84;96562.07;2255282;79;20942;-82
2022/04/08 03:32:41;;;;;;;2.83;2.17;;;;;;;4.75;84.43;96561.64;2254795;79;20953;-82
2022/04/08 03:35:41;;;;;;;4.40;2.10;;;;;;;4.75;84.22;96567.24;2254781;79;20899;-82
2022/04/08 03:38:42;;;;;;;4.37;1.40;;;;;;;4.78;85.10;96578.87;2254733;79;21266;-81
2022/04/08 03:41:42;;;;;;;1.73;1.20;;;;;;;4.79;84.12;96572.84;2254257;79;20872;-85
2022/04/08 03:44:43;;;;;;;3.57;1.50;;;;;;;4.79;84.22;96584.47;2254712;79;20966;-83
2022/04/08 03:47:45;;;;;;;4.90;1.90;;;;;;;4.85;84.02;96588.33;2254745;79;21335;-82
2022/04/08 03:53:47;;;;;;;4.63;3.33;;;;;;;4.98;83.83;96600.38;2232045;79;20907;-83
2022/04/08 03:56:48;;;;;;;8.83;3.73;;;;;;;5.03;84.16;96610.27;2254467;79;20983;-83
2022/04/08 03:59:49;;;;;;;10.27;2.77;;;;;;;5.05;83.81;96608.55;2254120;79;20891;-84
2022/04/08 04:02:50;;;;;;;4.60;2.10;;;;;;;5.08;83.95;96613.70;2253241;79;20943;-84
2022/04/08 04:05:50;;;;;;;6.73;2.67;;;;;;;5.09;83.70;96610.26;2254029;79;20915;-82
2022/04/08 04:08:51;;;;;;;3.97;1.87;;;;;;;5.12;83.72;96606.38;2254018;79;20930;-83
2022/04/08 04:11:52;;;;;;;6.27;2.03;;;;;;;5.15;84.01;96611.11;2253791;79;20978;-83
2022/04/08 04:14:52;;;;;;;2.93;1.50;;;;;;;5.16;83.79;96610.23;2253591;79;20905;-84
2022/04/08 04:17:53;;;;;;;5.77;2.00;;;;;;;5.17;84.08;96608.08;2254075;79;21397;-84
2022/04/08 04:20:53;;;;;;;2.83;1.90;;;;;;;5.17;83.74;96614.55;2254621;79;21377;-85
2022/04/08 04:23:53;;;;;;;6.10;1.80;;;;;;;5.18;83.56;96617.56;2253887;79;20927;-85
2022/04/08 04:26:54;;;;;;;5.10;2.03;;;;;;;5.21;83.77;96615.00;2254313;78;21003;-85
2022/04/08 04:29:54;;;;;;;3.23;1.73;;;;;;;5.25;83.61;96618.87;2254129;79;20903;-86
2022/04/08 04:32:56;;;;;;;6.63;1.90;;;;;;;5.29;83.83;96623.60;2254490;79;20911;-85
2022/04/08 04:35:57;;;;;;;3.40;1.57;;;;;;;5.32;83.43;96628.33;2254770;79;20973;-83
2022/04/08 04:38:57;;;;;;;8.10;3.43;;;;;;;5.39;83.39;96625.30;2253441;79;21294;-85
2022/04/08 04:41:59;;;;;;;6.63;2.63;;;;;;;5.45;83.05;96626.56;2254744;79;21333;-87
2022/04/08 04:44:59;;;;;;;5.63;2.43;;;;;;;5.53;82.74;96636.45;2254207;79;20963;-85
2022/04/08 04:48:00;;;;;;;4.60;2.40;;;;;;;5.60;82.59;96634.27;2254301;79;21270;-83
2022/04/08 04:51:00;;;;;;;6.43;2.77;;;;;;;5.67;82.26;96642.44;2253454;79;21763;-83
2022/04/08 04:54:01;;;;;;;5.87;2.50;;;;;;;5.75;82.36;96649.73;2253772;79;20911;-84
2022/04/08 04:57:02;;;;;;;10.23;3.10;;;;;;;5.84;81.47;96659.62;2253668;79;20908;-85
2022/04/08 05:00:02;;;;;;;7.10;2.80;;;;;;;5.90;80.65;96669.98;2254161;79;21263;-81
2022/04/08 05:03:04;;;;;;;8.33;2.80;;;;;;;5.98;80.02;96669.52;2254102;79;20916;-81
2022/04/08 05:06:05;;;;;;;28.63;16.13;;;;;;;6.09;78.72;96669.06;2254532;79;20943;-83
2022/04/08 05:09:06;;;;;;;8.23;2.50;;;;;;;6.19;77.15;96668.14;2253987;79;20971;-86
2022/04/08 05:12:06;;;;;;;10.83;3.10;;;;;;;6.29;77.52;96662.47;2254062;79;20922;-86
2022/04/08 05:15:07;;;;;;;4.30;1.80;;;;;;;6.33;77.27;96667.63;2254099;79;20927;-85
2022/04/08 05:18:07;;;;;;;8.27;2.30;;;;;;;6.37;74.98;96671.05;2253967;79;20906;-86
2022/04/08 05:21:08;;;;;;;6.30;2.50;;;;;;;6.40;75.81;96680.11;2253510;79;20900;-85
2022/04/08 05:24:08;;;;;;;11.73;3.07;;;;;;;6.54;75.55;96680.02;2254491;79;20998;-82
2022/04/08 05:27:09;;;;;;;6.53;2.50;;;;;;;6.66;75.27;96687.70;2254390;78;20950;-86
2022/04/08 05:30:09;;;;;;;10.77;3.10;;;;;;;6.85;74.56;96685.39;2254404;79;20943;-85
2022/04/08 05:33:10;;;;;;;5.60;2.30;;;;;;;7.09;73.69;96692.14;2254348;79;20958;-84
2022/04/08 05:36:10;;;;;;;8.23;2.40;;;;;;;7.20;72.53;96697.23;2254933;79;20955;-85
2022/04/08 05:39:11;;;;;;;7.80;2.70;;;;;;;7.24;71.57;96697.62;2254809;79;20919;-83
2022/04/08 05:42:11;;;;;;;7.10;2.20;;;;;;;7.30;71.30;96700.17;2254564;79;20943;-84
2022/04/08 05:45:12;;;;;;;4.47;2.13;;;;;;;7.28;70.25;96707.11;2254455;79;20923;-83
2022/04/08 05:48:12;;;;;;;4.43;1.93;;;;;;;7.31;68.70;96715.72;2254451;79;20923;-83
2022/04/08 05:51:13;;;;;;;5.70;1.90;;;;;;;7.30;69.37;96718.33;2254840;79;20967;-84
2022/04/08 05:54:13;;;;;;;7.27;2.07;;;;;;;7.24;68.17;96714.06;2254446;79;20900;-83
2022/04/08 05:57:14;;;;;;;5.93;2.27;;;;;;;7.32;68.21;96715.28;2254739;79;20938;-84
2022/04/08 06:00:15;;;;;;;6.67;3.10;;;;;;;7.73;67.21;96712.70;2253772;79;20911;-84
2022/04/08 06:03:15;;;;;;;7.27;2.03;;;;;;;7.96;66.11;96718.53;2253925;79;20934;-81
2022/04/08 06:06:25;;;;;;;4.60;1.97;;;;;;;8.10;63.19;96720.97;2254327;79;20906;-81
2022/04/08 06:09:25;;;;;;;7.47;2.40;;;;;;;8.24;63.03;96732.91;2253621;79;21314;-83
2022/04/08 06:12:26;;;;;;;9.93;2.07;;;;;;;8.42;64.29;96725.78;2253804;79;20918;-83
2022/04/08 06:15:27;;;;;;;6.07;2.20;;;;;;;8.64;62.00;96722.00;2254076;79;20950;-82
2022/04/08 06:21:29;;;;;;;4.73;2.27;;;;;;;9.15;58.05;96739.03;2230516;79;20948;-82
2022/04/08 06:24:30;;;;;;;7.10;2.17;;;;;;;9.15;58.05;96739.03;2252849;79;20938;-82
2022/04/08 06:27:31;;;;;;;7.07;2.53;;;;;;;9.25;57.82;96749.72;2253135;79;20951;-81
2022/04/08 06:30:31;;;;;;;3.63;1.80;;;;;;;9.36;57.28;96738.68;2253247;79;21353;-81
2022/04/08 06:33:32;;;;;;;7.67;2.50;;;;;;;9.35;55.94;96750.42;2253348;79;21566;-82
2022/04/08 06:36:32;;;;;;;5.70;2.57;;;;;;;9.47;55.58;96752.38;2252439;79;20887;-82
2022/04/08 06:39:33;;;;;;;4.87;2.53;;;;;;;9.62;55.57;96763.45;2252702;79;20962;-79
2022/04/08 06:42:33;;;;;;;7.60;2.40;;;;;;;9.83;54.70;96755.25;2252498;79;20872;-79
2022/04/08 06:45:34;;;;;;;4.13;2.53;;;;;;;10.33;54.22;96771.69;2253306;79;20884;-80
2022/04/08 06:48:34;;;;;;;6.23;2.03;;;;;;;10.41;53.34;96788.08;2253484;79;20964;-79
2022/04/08 06:51:35;;;;;;;6.80;2.13;;;;;;;10.34;52.05;96762.98;2252750;79;20899;-80
2022/04/08 06:54:36;;;;;;;9.03;2.87;;;;;;;10.32;51.89;96781.70;2253572;79;21010;-79
2022/04/08 06:57:36;;;;;;;9.60;2.90;;;;;;;10.28;51.52;96800.91;2253334;79;20906;-78
2022/04/08 07:00:37;;;;;;;7.77;3.20;;;;;;;10.22;50.45;96807.10;2253519;79;20946;-79
2022/04/08 07:03:38;;;;;;;10.00;3.67;;;;;;;10.15;51.43;96805.02;2252888;79;21263;-80
2022/04/08 07:06:38;;;;;;;7.80;3.57;;;;;;;10.13;52.39;96809.85;2252798;79;20954;-79
2022/04/08 07:09:39;;;;;;;8.90;2.87;;;;;;;10.19;52.56;96810.59;2253426;79;20903;-80
2022/04/08 07:12:39;;;;;;;11.77;3.47;;;;;;;10.24;52.11;96814.45;2253184;79;20896;-79
2022/04/08 07:15:40;;;;;;;11.17;3.43;;;;;;;10.30;51.98;96822.16;2253219;79;21299;-80
2022/04/08 07:18:40;;;;;;;9.70;2.67;;;;;;;10.28;51.16;96820.47;2253288;79;21338;-79
2022/04/08 07:21:41;;;;;;;10.30;2.80;;;;;;;10.33;52.67;96821.23;2252661;79;20935;-80
2022/04/08 07:24:44;;;;;;;5.80;2.93;;;;;;;10.31;51.17;96839.97;2253108;79;20938;-80
2022/04/08 07:27:45;;;;;;;8.43;2.70;;;;;;;10.34;50.52;96860.77;2248278;79;21015;-79
2022/04/08 07:30:48;;;;;;;6.37;2.80;;;;;;;10.42;50.15;96849.33;2247113;79;20872;-79
2022/04/08 07:33:49;;;;;;;4.57;2.60;;;;;;;10.51;49.91;96858.28;2246412;79;20947;-79
2022/04/08 07:36:53;;;;;;;6.50;2.47;;;;;;;10.62;48.44;96865.90;2246931;79;20903;-78
2022/04/08 07:39:53;;;;;;;7.70;2.70;;;;;;;10.69;49.44;96867.95;2247175;79;20899;-79
2022/04/08 07:42:54;;;;;;;97.17;5.73;;;;;;;10.70;48.64;96886.18;2247030;79;20903;-79
2022/04/08 07:45:55;;;;;;;4.67;2.50;;;;;;;10.75;49.59;96867.38;2247373;79;20919;-82
2022/04/08 07:48:55;;;;;;;4.97;2.23;;;;;;;11.01;46.79;96871.19;2247167;79;20902;-81
2022/04/08 07:51:56;;;;;;;6.90;2.23;;;;;;;11.24;47.46;96878.08;2246583;79;20954;-81
2022/04/08 07:54:57;;;;;;;7.17;2.33;;;;;;;11.54;48.82;96873.09;2247717;79;20931;-83
2022/04/08 07:57:57;;;;;;;7.72;3.47;;;;;;;11.87;47.01;96880.16;2247162;79;20971;-82
2022/04/08 08:00:57;;;;;;;4.87;2.30;;;;;;;12.09;47.22;96887.02;2247156;79;21324;-82
2022/04/08 08:03:58;;;;;;;6.83;2.50;;;;;;;12.49;46.83;96889.48;2246434;79;21291;-80
2022/04/08 08:06:59;;;;;;;5.25;2.62;;;;;;;12.78;46.24;96893.92;2245953;79;20904;-81
2022/04/08 08:09:59;;;;;;;5.03;2.27;;;;;;;12.82;44.84;96896.01;2246576;79;21047;-82
2022/04/08 08:13:05;;;;;;;3.87;1.85;;;;;;;12.79;46.35;96890.86;2245989;79;20931;-81
2022/04/08 08:16:07;;;;;;;4.80;2.17;;;;;;;12.87;44.78;96895.42;2246751;79;20955;-81
2022/04/08 08:19:07;;;;;;;5.75;2.35;;;;;;;12.61;43.52;96914.02;2246294;79;21016;-81
2022/04/08 08:22:07;;;;;;;8.00;3.17;;;;;;;12.35;44.72;96921.70;2246626;79;20917;-80
2022/04/08 08:25:08;;;;;;;7.12;2.40;;;;;;;12.16;45.20;96921.75;2247263;79;20941;-82
2022/04/08 08:28:08;;;;;;;4.17;2.20;;;;;;;12.14;44.63;96925.72;2252860;79;20920;-82
2022/04/08 08:31:09;;;;;;;4.83;2.58;;;;;;;12.07;45.23;96938.05;2253828;79;20919;-81
2022/04/08 08:34:10;;;;;;;3.75;2.40;;;;;;;11.87;44.39;96940.73;2253641;79;21338;-83
2022/04/08 08:37:10;;;;;;;5.22;2.65;;;;;;;11.68;46.28;96945.49;2252798;79;20959;-81
2022/04/08 08:40:14;;;;;;;9.30;2.58;;;;;;;11.54;45.15;96956.70;2252873;79;20931;-81
2022/04/08 08:43:14;;;;;;;5.00;2.40;;;;;;;11.34;44.93;96953.22;2253446;79;20879;-80
2022/04/08 08:46:16;;;;;;;5.00;1.80;;;;;;;11.35;45.37;96953.63;2252867;79;21445;-81
2022/04/08 08:49:16;;;;;;;9.83;2.77;;;;;;;11.24;44.20;96974.72;2252949;79;21018;-82
2022/04/08 08:52:16;;;;;;;5.53;2.70;;;;;;;11.27;45.67;96959.02;2252860;79;20903;-80
2022/04/08 08:55:17;;;;;;;4.77;2.30;;;;;;;11.35;45.23;96954.93;2253519;79;21136;-81
2022/04/08 08:58:17;;;;;;;6.10;2.60;;;;;;;11.34;44.12;96971.05;2253269;79;20919;-80
2022/04/08 09:01:21;;;;;;;5.97;3.73;;;;;;;11.48;45.55;96970.31;2253305;79;20896;-80
2022/04/08 09:04:23;;;;;;;8.63;2.90;;;;;;;11.81;44.85;96984.87;2254167;79;21378;-79
2022/04/08 09:07:23;;;;;;;7.57;2.60;;;;;;;11.81;44.85;96984.87;2254181;79;21588;-80
2022/04/08 09:10:24;;;;;;;5.20;1.90;;;;;;;11.84;44.26;96986.10;2253749;79;20947;-81
2022/04/08 09:13:25;;;;;;;7.15;2.10;;;;;;;11.99;44.10;96993.59;2253438;79;20927;-80
2022/04/08 09:16:29;;;;;;;4.00;2.77;;;;;;;11.97;43.82;96994.08;2254490;79;20923;-81
2022/04/08 09:19:30;;;;;;;5.28;2.60;;;;;;;11.98;43.76;96980.11;2253737;79;20954;-81
2022/04/08 09:22:32;;;;;;;3.25;2.00;;;;;;;12.15;45.05;96987.59;2253931;79;20912;-81
2022/04/08 09:25:33;;;;;;;5.08;2.10;;;;;;;12.21;44.46;96991.81;2254893;79;20983;-84
2022/04/08 09:28:34;;;;;;;5.70;1.72;;;;;;;12.13;44.53;96995.44;2251351;79;20931;-82
2022/04/08 09:31:35;;;;;;;4.65;2.40;;;;;;;12.09;45.15;97000.33;2251402;79;21006;-82
2022/04/08 09:34:36;;;;;;;6.25;2.85;;;;;;;12.17;45.17;96998.02;2250608;79;20951;-81
2022/04/08 09:37:37;;;;;;;5.75;2.98;;;;;;;12.43;45.19;96987.77;2251119;79;20908;-81
2022/04/08 09:40:37;;;;;;;5.00;1.80;;;;;;;12.65;45.63;96998.11;2251350;79;20899;-80
2022/04/08 09:43:39;;;;;;;4.83;2.12;;;;;;;12.54;44.49;96994.91;2251276;79;20939;-82
2022/04/08 09:46:40;;;;;;;7.47;1.80;;;;;;;12.09;43.90;97004.25;2250947;79;20978;-81
2022/04/08 09:49:41;;;;;;;4.92;2.10;;;;;;;11.72;43.97;97004.64;2250357;79;21369;-81
2022/04/08 09:52:42;;;;;;;6.67;2.40;;;;;;;11.53;43.25;97012.46;2250924;79;20951;-80
2022/04/08 09:55:42;;;;;;;5.90;2.20;;;;;;;11.38;44.06;97016.25;2250959;79;20872;-84
2022/04/08 09:58:46;;;;;;;5.57;2.90;;;;;;;11.11;45.07;97017.62;2251082;79;21263;-82
2022/04/08 10:01:47;;;;;;;6.17;1.83;;;;;;;11.04;46.92;97017.33;2251376;79;20942;-81
2022/04/08 10:04:48;;;;;;;4.67;2.63;;;;;;;11.18;46.85;97027.06;2250700;79;20947;-81
2022/04/08 10:07:49;;;;;;;7.17;2.58;;;;;;;11.51;47.36;97020.34;2250325;79;20907;-82
2022/04/08 10:10:51;;;;;;;7.97;3.57;;;;;;;12.03;46.65;97013.55;2251090;79;20938;-80
2022/04/08 10:13:51;;;;;;;6.97;3.42;;;;;;;12.00;44.87;97017.98;2250869;79;21651;-80
2022/04/08 10:16:52;;;;;;;5.20;2.20;;;;;;;11.90;44.18;97023.02;2251510;79;20911;-82
2022/04/08 10:19:53;;;;;;;4.67;2.80;;;;;;;11.60;43.07;97029.73;2252025;79;21350;-84
2022/04/08 10:22:54;;;;;;;6.12;3.27;;;;;;;11.32;47.57;97026.38;2251901;79;20874;-84
2022/04/08 10:25:55;;;;;;;8.83;3.42;;;;;;;11.46;47.91;97027.41;2251637;79;20967;-83
2022/04/08 10:28:55;;;;;;;7.28;2.80;;;;;;;11.64;48.55;97028.77;2241123;79;20948;-82
2022/04/08 10:31:56;;;;;;;4.70;2.55;;;;;;;11.65;47.04;97030.05;2241969;79;21279;-84
2022/04/08 10:34:56;;;;;;;3.25;1.90;;;;;;;11.65;46.72;97037.89;2241448;79;20987;-81
2022/04/08 10:37:57;;;;;;;2.83;1.80;;;;;;;11.75;47.26;97045.09;2241106;79;20887;-82
2022/04/08 10:40:57;;;;;;;4.37;1.85;;;;;;;11.95;45.97;97057.77;2240973;79;20947;-83
2022/04/08 10:43:58;;;;;;;4.58;2.70;;;;;;;12.16;45.63;97056.45;2240037;79;21267;-83
2022/04/08 10:46:59;;;;;;;6.17;2.60;;;;;;;12.70;46.82;97049.89;2239778;79;21371;-82
2022/04/08 10:50:00;;;;;;;2.10;1.35;;;;;;;13.09;45.46;97040.62;2240106;79;21035;-83
2022/04/08 10:53:00;;;;;;;3.45;1.72;;;;;;;13.22;44.74;97048.59;2240241;79;21338;-78
2022/04/08 10:56:01;;;;;;;6.05;2.55;;;;;;;13.09;43.77;97057.66;2240470;79;21295;-81
2022/04/08 10:59:01;;;;;;;4.35;2.75;;;;;;;12.85;42.79;97062.19;2241473;79;21259;-84
2022/04/08 11:02:05;;;;;;;3.55;1.90;;;;;;;12.86;42.76;97066.53;2241276;79;20935;-83
2022/04/08 11:05:04;;;;;;;6.85;3.72;;;;;;;13.00;42.71;97070.95;2240484;79;21003;-84
2022/04/08 11:08:05;;;;;;;4.42;2.98;;;;;;;13.01;43.46;97063.09;2240349;79;20908;-83
2022/04/08 11:11:06;;;;;;;11.30;3.95;;;;;;;13.11;42.36;97065.47;2240759;79;21109;-82
2022/04/08 11:14:08;;;;;;;7.78;3.75;;;;;;;12.97;43.35;97072.34;2218592;79;20888;-83
2022/04/08 11:17:08;;;;;;;4.03;2.67;;;;;;;12.80;43.04;97061.44;2240721;79;20912;-82
2022/04/08 11:20:09;;;;;;;5.85;2.22;;;;;;;12.68;43.00;97079.17;2240636;79;20915;-82
2022/04/08 11:23:09;;;;;;;3.77;1.72;;;;;;;12.56;41.56;97082.54;2240660;79;20920;-83
2022/04/08 11:26:10;;;;;;;3.55;1.90;;;;;;;12.44;40.98;97091.55;2240682;79;20950;-82
2022/04/08 11:29:15;;;;;;;3.55;1.70;;;;;;;12.48;42.45;97083.17;2208117;80;21331;-83
2022/04/08 11:32:16;;;;;;;3.33;1.60;;;;;;;12.45;41.56;97088.03;2161287;82;20927;-83
2022/04/08 11:35:20;;;;;;;5.58;1.72;;;;;;;12.54;42.30;97095.66;2207876;81;20904;-83
2022/04/08 11:38:20;;;;;;;5.73;2.33;;;;;;;12.45;44.47;97093.27;2162570;82;20955;-82
2022/04/08 11:41:21;;;;;;;6.83;3.17;;;;;;;12.43;44.80;97097.67;2208181;80;20912;-82
2022/04/08 11:44:21;;;;;;;7.65;2.02;;;;;;;12.58;43.82;97100.38;2161947;82;21032;-81
2022/04/08 11:47:22;;;;;;;8.08;2.25;;;;;;;12.63;43.43;97091.52;2208372;80;20901;-83
2022/04/08 11:50:22;;;;;;;6.15;2.20;;;;;;;12.71;43.84;97090.88;2162055;82;20951;-82
2022/04/08 11:53:23;;;;;;;9.45;2.10;;;;;;;12.72;42.81;97086.51;2161741;82;20924;-82
2022/04/08 11:56:24;;;;;;;6.30;2.20;;;;;;;12.81;42.89;97094.58;2161800;82;20936;-84
2022/04/08 11:59:25;;;;;;;7.50;2.37;;;;;;;13.05;42.29;97085.69;2161607;82;20932;-82
2022/04/08 12:02:25;;;;;;;5.17;1.77;;;;;;;13.34;41.97;97071.84;2207420;80;21320;-83
2022/04/08 12:05:27;;;;;;;3.67;2.00;;;;;;;13.61;42.21;97075.91;2160040;82;21366;-83
2022/04/08 12:08:28;;;;;;;2.75;1.67;;;;;;;13.96;41.30;97081.03;2206764;81;21669;-82
2022/04/08 12:11:28;;;;;;;6.30;2.33;;;;;;;13.95;40.45;97079.77;2160499;82;20951;-81
2022/04/08 12:14:29;;;;;;;4.62;3.40;;;;;;;13.88;41.31;97083.47;2161096;82;20900;-84
2022/04/08 12:17:29;;;;;;;3.70;1.98;;;;;;;13.81;40.86;97082.76;2207045;81;20924;-83
2022/04/08 12:20:30;;;;;;;12.90;3.35;;;;;;;13.44;39.29;97083.39;2160006;82;21413;-83
2022/04/08 12:23:32;;;;;;;12.90;5.15;;;;;;;13.20;41.55;97091.45;2183017;81;20971;-80
2022/04/08 12:26:33;;;;;;;10.25;5.35;;;;;;;12.87;44.28;97096.59;2159537;82;20912;-79
2022/04/08 12:29:37;;;;;;;7.58;2.98;;;;;;;12.47;44.55;97100.62;2265563;78;20883;-81
2022/04/08 12:32:36;;;;;;;6.62;3.02;;;;;;;12.51;45.54;97092.27;2265123;78;21021;-79
2022/04/08 12:35:36;;;;;;;6.10;2.80;;;;;;;12.38;45.61;97093.00;2266180;78;20918;-80
2022/04/08 12:38:38;;;;;;;6.25;2.75;;;;;;;12.30;46.52;97094.48;2266880;78;21278;-80
2022/04/08 12:41:39;;;;;;;7.70;3.10;;;;;;;12.37;46.29;97077.74;2267182;78;20982;-81
2022/04/08 12:44:39;;;;;;;6.03;2.70;;;;;;;12.35;45.92;97070.38;2267389;78;20883;-79
2022/04/08 12:47:40;;;;;;;8.63;3.08;;;;;;;12.19;45.68;97060.30;2267211;78;21333;-79
2022/04/08 12:50:41;;;;;;;7.12;2.72;;;;;;;12.33;46.31;97063.46;2266609;78;21420;-80
2022/04/08 12:53:41;;;;;;;6.05;2.67;;;;;;;12.62;45.33;97057.08;2264890;78;21357;-79
2022/04/08 12:56:41;;;;;;;3.85;2.83;;;;;;;12.88;43.85;97040.71;2265729;78;20891;-79
2022/04/08 12:59:42;;;;;;;5.17;2.40;;;;;;;13.06;43.78;97041.57;2266899;78;20977;-80
2022/04/08 13:02:43;;;;;;;9.65;2.85;;;;;;;13.18;43.50;97040.86;2266691;78;20919;-79
2022/04/08 13:05:43;;;;;;;5.35;2.95;;;;;;;13.30;42.48;97034.84;2266295;78;20903;-78
2022/04/08 13:08:43;;;;;;;3.00;1.95;;;;;;;13.42;41.63;97034.94;2267336;78;20902;-80
2022/04/08 13:11:46;;;;;;;5.87;2.80;;;;;;;13.12;41.05;97037.06;2267990;78;20887;-78
2022/04/08 13:14:47;;;;;;;4.70;2.40;;;;;;;12.97;42.34;97028.69;2267940;78;20934;-80
2022/04/08 13:17:47;;;;;;;5.78;1.77;;;;;;;13.10;42.39;97017.46;2266506;78;21244;-79
2022/04/08 13:20:48;;;;;;;13.10;2.40;;;;;;;13.13;40.14;97019.14;2265312;78;21377;-78
2022/04/08 13:23:48;;;;;;;3.83;1.75;;;;;;;13.25;41.22;97018.38;2265608;78;20891;-80
2022/04/08 13:26:49;;;;;;;2.92;1.32;;;;;;;13.19;39.42;97008.52;2265061;78;20945;-79
2022/04/08 13:29:49;;;;;;;3.37;1.77;;;;;;;13.27;39.32;97002.17;2252288;78;21548;-79
2022/04/08 13:32:52;;;;;;;3.58;1.70;;;;;;;13.56;39.04;97008.34;2252927;78;20938;-80
2022/04/08 13:35:56;;;;;;;3.70;1.70;;;;;;;13.95;40.67;96999.31;2253165;79;20971;-79
2022/04/08 13:38:56;;;;;;;3.40;2.15;;;;;;;14.31;39.35;97000.37;2253645;79;20967;-83
2022/04/08 13:41:56;;;;;;;3.55;2.02;;;;;;;14.31;37.34;97004.30;2253833;79;20987;-80
2022/04/08 13:44:57;;;;;;;4.42;1.57;;;;;;;14.03;37.04;97006.94;2253397;79;20940;-81
2022/04/08 13:47:57;;;;;;;4.30;1.60;;;;;;;14.20;36.94;96995.46;2253823;78;20906;-80
2022/04/08 13:51:00;;;;;;;4.80;2.05;;;;;;;14.43;36.74;96992.13;2254304;78;21386;-80
2022/04/08 13:54:01;;;;;;;5.12;1.85;;;;;;;14.55;37.08;96990.86;2254467;79;20951;-80
2022/04/08 13:57:01;;;;;;;9.35;2.62;;;;;;;14.54;35.37;96974.25;2254791;79;20895;-79
2022/04/08 14:00:02;;;;;;;3.15;1.47;;;;;;;14.61;35.88;96986.27;2254516;78;20925;-81
2022/04/08 14:03:04;;;;;;;9.58;2.00;;;;;;;14.58;35.38;96983.74;2223667;79;20930;-80
2022/04/08 14:06:05;;;;;;;2.90;1.20;;;;;;;14.60;35.09;96987.62;2254448;79;20918;-83
2022/04/08 14:09:05;;;;;;;5.60;2.00;;;;;;;14.64;34.94;96988.78;2254647;78;20939;-79
2022/04/08 14:12:06;;;;;;;3.10;1.75;;;;;;;14.57;34.82;97000.86;2254375;78;20919;-80
2022/04/08 14:15:07;;;;;;;6.22;2.37;;;;;;;14.47;35.14;96983.70;2254111;79;21063;-81
2022/04/08 14:18:08;;;;;;;6.58;2.87;;;;;;;14.46;34.66;96989.85;2255298;78;21108;-80
2022/04/08 14:21:09;;;;;;;6.25;3.15;;;;;;;14.56;32.70;96982.94;2254454;79;20962;-81